createdAt,value
2023-03-22T00:01:23.058Z,5.07
2023-03-22T00:03:52.253Z,4.55
2023-03-22T00:06:20.130Z,4.32
2023-03-22T00:08:50.815Z,4.15
2023-03-22T00:11:19.515Z,4.03
2023-03-22T00:13:48.018Z,3.83
2023-03-22T00:16:16.643Z,4.25
2023-03-22T00:18:54.414Z,4.28
2023-03-22T00:21:21.988Z,4.43
2023-03-22T00:23:49.451Z,4.68
2023-03-22T00:26:16.856Z,4.20
2023-03-22T00:28:44.190Z,4.53
2023-03-22T00:31:11.798Z,5.07
2023-03-22T00:33:39.375Z,4.38
2023-03-22T00:36:09.246Z,4.80
2023-03-22T00:38:44.063Z,4.32
2023-03-22T00:41:18.177Z,4.85
2023-03-22T00:43:46.842Z,3.90
2023-03-22T00:46:15.562Z,3.92
2023-03-22T00:48:43.449Z,3.85
2023-03-22T00:51:11.198Z,3.60
2023-03-22T00:53:42.582Z,3.38
2023-03-22T00:56:14.325Z,3.60
2023-03-22T00:58:42.704Z,3.03
2023-03-22T01:01:13.848Z,3.60
2023-03-22T01:03:43.348Z,3.13
2023-03-22T01:06:11.635Z,3.40
2023-03-22T01:08:39.320Z,3.28
2023-03-22T01:11:07.879Z,3.45
2023-03-22T01:13:37.795Z,3.10
2023-03-22T01:16:06.787Z,3.35
2023-03-22T01:18:34.285Z,3.53
2023-03-22T01:21:01.980Z,3.22
2023-03-22T01:23:29.562Z,3.13
2023-03-22T01:25:56.951Z,3.30
2023-03-22T01:28:26.985Z,3.50
2023-03-22T01:30:55.348Z,3.65
2023-03-22T01:33:22.968Z,3.58
2023-03-22T01:35:50.586Z,3.53
2023-03-22T01:38:18.050Z,3.50
2023-03-22T01:40:45.396Z,3.53
2023-03-22T01:43:17.195Z,3.83
2023-03-22T01:45:52.969Z,3.70
2023-03-22T01:48:29.342Z,4.45
2023-03-22T01:51:11.585Z,4.68
2023-03-22T01:53:50.860Z,4.40
2023-03-22T01:56:21.510Z,4.68
2023-03-22T01:58:49.414Z,5.20
2023-03-22T02:01:17.182Z,5.25
2023-03-22T02:04:07.157Z,6.07
2023-03-22T02:06:38.171Z,6.70
2023-03-22T02:09:08.305Z,6.55
2023-03-22T02:11:44.058Z,7.15
2023-03-22T02:14:39.814Z,7.57
2023-03-22T02:17:36.913Z,8.32
2023-03-22T02:20:42.526Z,8.90
2023-03-22T02:23:15.942Z,9.80
2023-03-22T02:26:01.426Z,10.27
2023-03-22T02:28:52.745Z,10.30
2023-03-22T02:31:49.091Z,11.10
2023-03-22T02:34:28.694Z,10.85
2023-03-22T02:37:23.752Z,12.13
2023-03-22T02:39:53.904Z,11.07
2023-03-22T02:42:33.088Z,11.82
2023-03-22T02:45:30.590Z,11.82
2023-03-22T02:48:28.558Z,12.77
2023-03-22T02:51:00.729Z,12.23
2023-03-22T02:53:40.827Z,12.65
2023-03-22T02:56:29.033Z,12.80
2023-03-22T02:58:59.548Z,12.60
2023-03-22T03:01:30.534Z,13.20
2023-03-22T03:04:01.663Z,12.93
2023-03-22T03:06:32.618Z,12.60
2023-03-22T03:09:05.144Z,13.45
2023-03-22T03:11:32.779Z,12.05
2023-03-22T03:14:00.266Z,13.75
2023-03-22T03:16:30.966Z,13.55
2023-03-22T03:19:04.055Z,13.10
2023-03-22T03:21:32.694Z,13.63
2023-03-22T03:24:21.310Z,13.57
2023-03-22T03:26:57.811Z,13.85
2023-03-22T03:29:49.527Z,13.75
2023-03-22T03:32:38.401Z,13.45
2023-03-22T03:35:22.458Z,13.60
2023-03-22T03:38:12.442Z,12.82
2023-03-22T03:40:43.917Z,12.95
2023-03-22T03:43:11.808Z,13.82
2023-03-22T03:45:39.532Z,12.77
2023-03-22T03:48:16.607Z,12.98
2023-03-22T03:50:46.475Z,12.20
2023-03-22T03:53:13.866Z,11.90
2023-03-22T03:55:41.184Z,12.00
2023-03-22T03:58:11.622Z,11.88
2023-03-22T04:00:39.699Z,11.70
2023-03-22T04:03:07.800Z,11.60
2023-03-22T04:05:35.196Z,12.10
2023-03-22T04:08:02.763Z,12.23
2023-03-22T04:10:30.683Z,12.00
2023-03-22T04:12:58.121Z,11.23
2023-03-22T04:15:25.597Z,10.52
2023-03-22T04:17:53.897Z,11.15
2023-03-22T04:20:21.755Z,11.18
2023-03-22T04:22:49.169Z,11.07
2023-03-22T04:25:18.738Z,10.55
2023-03-22T04:27:51.108Z,10.20
2023-03-22T04:30:20.286Z,10.48
2023-03-22T04:32:48.702Z,10.65
2023-03-22T04:35:16.832Z,10.30
2023-03-22T04:37:45.659Z,9.95
2023-03-22T04:40:17.258Z,10.70
2023-03-22T04:42:45.610Z,10.93
2023-03-22T04:45:13.641Z,10.45
2023-03-22T04:47:41.235Z,10.10
2023-03-22T04:50:09.396Z,10.38
2023-03-22T04:52:36.724Z,10.05
2023-03-22T04:55:04.239Z,9.52
2023-03-22T04:57:31.805Z,9.85
2023-03-22T04:59:59.193Z,9.25
2023-03-22T05:02:26.613Z,8.85
2023-03-22T05:04:54.024Z,9.57
2023-03-22T05:07:21.667Z,9.43
2023-03-22T05:09:49.213Z,7.97
2023-03-22T05:12:16.589Z,8.65
2023-03-22T05:14:44.098Z,8.63
2023-03-22T05:17:11.496Z,6.97
2023-03-22T05:19:38.933Z,7.13
2023-03-22T05:22:06.201Z,7.45
2023-03-22T05:24:33.468Z,6.45
2023-03-22T05:27:06.622Z,6.07
2023-03-22T05:29:36.942Z,5.40
2023-03-22T05:32:05.639Z,6.10
2023-03-22T05:34:35.834Z,5.20
2023-03-22T05:37:03.635Z,5.45
2023-03-22T05:39:31.442Z,5.28
2023-03-22T05:41:58.801Z,4.78
2023-03-22T05:44:26.204Z,5.07
2023-03-22T05:46:53.612Z,4.63
2023-03-22T05:49:21.145Z,4.43
2023-03-22T05:51:48.821Z,4.88
2023-03-22T05:54:16.349Z,4.57
2023-03-22T05:56:44.256Z,4.20
2023-03-22T05:59:11.723Z,4.65
2023-03-22T06:01:44.734Z,4.68
2023-03-22T06:04:12.162Z,4.35
2023-03-22T06:06:39.490Z,4.40
2023-03-22T06:09:16.387Z,4.38
2023-03-22T06:11:44.514Z,4.22
2023-03-22T06:14:12.015Z,4.63
2023-03-22T06:16:39.330Z,4.13
2023-03-22T06:19:06.966Z,4.20
2023-03-22T06:21:34.329Z,4.43
2023-03-22T06:24:06.433Z,4.30
2023-03-22T06:26:33.803Z,4.03
2023-03-22T06:29:03.533Z,4.32
2023-03-22T06:31:41.247Z,4.05
2023-03-22T06:34:11.266Z,4.55
2023-03-22T06:36:38.621Z,4.10
2023-03-22T06:39:05.966Z,4.28
2023-03-22T06:41:33.783Z,4.28
2023-03-22T06:44:02.633Z,3.90
2023-03-22T06:46:30.225Z,3.65
2023-03-22T06:48:57.787Z,3.50
2023-03-22T06:51:31.247Z,4.15
2023-03-22T06:53:58.950Z,3.90
2023-03-22T06:56:26.995Z,3.45
2023-03-22T06:58:58.455Z,3.58
2023-03-22T07:01:26.546Z,3.85
2023-03-22T07:03:57.119Z,3.80
2023-03-22T07:06:32.352Z,4.18
2023-03-22T07:09:00.431Z,4.30
2023-03-22T07:11:29.362Z,3.85
2023-03-22T07:13:58.951Z,4.18
2023-03-22T07:16:30.165Z,3.78
2023-03-22T07:18:57.700Z,3.60
2023-03-22T07:21:27.981Z,3.80
2023-03-22T07:23:55.593Z,3.28
2023-03-22T07:26:26.210Z,4.57
2023-03-22T07:28:54.006Z,3.47
2023-03-22T07:31:21.426Z,3.97
2023-03-22T07:33:48.743Z,3.80
2023-03-22T07:36:18.753Z,3.95
2023-03-22T07:38:46.366Z,4.35
2023-03-22T07:41:13.775Z,4.45
2023-03-22T07:43:53.147Z,3.15
2023-03-22T07:46:22.813Z,3.80
2023-03-22T07:48:50.605Z,3.60
2023-03-22T07:51:19.194Z,3.20
2023-03-22T07:53:46.714Z,4.22
2023-03-22T07:56:14.029Z,3.95
2023-03-22T07:58:41.372Z,3.80
2023-03-22T08:01:10.010Z,4.00
2023-03-22T08:03:37.842Z,4.00
2023-03-22T08:06:07.815Z,3.67
2023-03-22T08:08:38.559Z,3.75
2023-03-22T08:11:06.889Z,3.78
2023-03-22T08:13:34.372Z,3.65
2023-03-22T08:16:01.787Z,3.22
2023-03-22T08:18:29.119Z,3.85
2023-03-22T08:20:58.917Z,3.75
2023-03-22T08:23:40.586Z,3.58
2023-03-22T08:26:11.691Z,3.75
2023-03-22T08:28:39.077Z,3.63
2023-03-22T08:31:15.256Z,4.07
2023-03-22T08:33:43.428Z,3.55
2023-03-22T08:36:13.536Z,3.65
2023-03-22T08:38:42.966Z,3.83
2023-03-22T08:41:10.868Z,3.75
2023-03-22T08:43:38.327Z,3.97
2023-03-22T08:46:05.970Z,4.60
2023-03-22T08:48:35.501Z,4.07
2023-03-22T08:51:08.342Z,4.03
2023-03-22T08:56:03.778Z,3.63
2023-03-22T08:58:31.108Z,4.13
2023-03-22T09:00:58.755Z,4.45
2023-03-22T09:03:26.235Z,3.97
2023-03-22T09:05:54.388Z,4.15
2023-03-22T09:08:21.748Z,4.90
2023-03-22T09:10:52.554Z,4.10
2023-03-22T09:13:21.560Z,4.32
2023-03-22T09:15:49.101Z,4.90
2023-03-22T09:18:16.764Z,4.60
2023-03-22T09:20:45.936Z,4.50
2023-03-22T09:23:18.088Z,4.10
2023-03-22T09:25:48.938Z,4.72
2023-03-22T09:31:12.268Z,4.50
2023-03-22T09:36:25.633Z,5.13
2023-03-22T09:38:53.101Z,4.00
2023-03-22T09:41:32.412Z,4.43
2023-03-22T09:44:03.871Z,4.40
2023-03-22T09:46:36.947Z,4.03
2023-03-22T09:49:11.220Z,4.03
2023-03-22T09:51:50.029Z,3.90
2023-03-22T09:54:54.130Z,4.15
2023-03-22T09:57:37.295Z,4.20
2023-03-22T10:00:14.869Z,4.07
2023-03-22T10:03:16.779Z,3.70
2023-03-22T10:05:50.018Z,4.50
2023-03-22T10:08:59.050Z,3.90
2023-03-22T10:11:47.525Z,4.82
2023-03-22T10:14:32.435Z,4.47
2023-03-22T10:17:05.579Z,4.78
2023-03-22T10:19:52.874Z,4.15
2023-03-22T10:22:30.229Z,4.32
2023-03-22T10:24:58.417Z,4.40
2023-03-22T10:27:28.733Z,4.35
2023-03-22T10:30:20.800Z,4.00
2023-03-22T10:33:05.217Z,4.25
2023-03-22T10:35:32.820Z,3.97
2023-03-22T10:38:02.855Z,4.07
2023-03-22T10:40:34.488Z,4.05
2023-03-22T10:43:34.033Z,4.03
2023-03-22T10:46:04.850Z,4.28
2023-03-22T10:48:38.644Z,3.88
2023-03-22T10:51:07.153Z,3.33
2023-03-22T10:53:48.537Z,3.72
2023-03-22T10:56:18.842Z,3.85
2023-03-22T10:58:46.992Z,4.00
2023-03-22T11:01:17.257Z,3.60
2023-03-22T11:03:52.290Z,3.33
2023-03-22T11:06:29.999Z,3.90
2023-03-22T11:09:21.793Z,3.55
2023-03-22T11:11:56.168Z,3.20
2023-03-22T11:14:37.686Z,3.50
2023-03-22T11:17:14.144Z,3.90
2023-03-22T11:19:51.523Z,3.22
2023-03-22T11:22:25.017Z,3.17
2023-03-22T11:24:52.616Z,3.50
2023-03-22T11:27:24.332Z,3.45
2023-03-22T11:29:59.204Z,3.30
2023-03-22T11:32:39.380Z,3.40
2023-03-22T11:35:16.172Z,3.60
2023-03-22T11:37:49.019Z,3.85
2023-03-22T11:42:46.026Z,3.20
2023-03-22T11:45:27.664Z,3.28
2023-03-22T11:47:56.240Z,3.22
2023-03-22T11:50:30.192Z,3.47
2023-03-22T11:52:58.110Z,3.10
2023-03-22T11:55:26.408Z,3.47
2023-03-22T11:57:56.930Z,3.70
2023-03-22T12:00:29.861Z,3.83
2023-03-22T12:05:36.453Z,4.35
2023-03-22T12:08:29.542Z,3.45
2023-03-22T12:11:06.998Z,3.60
2023-03-22T12:13:45.910Z,3.35
2023-03-22T12:16:15.812Z,3.33
2023-03-22T12:19:05.364Z,2.80
2023-03-22T12:21:33.798Z,3.35
2023-03-22T12:24:03.907Z,3.10
2023-03-22T12:26:32.916Z,3.25
2023-03-22T12:29:15.109Z,3.38
2023-03-22T12:31:59.653Z,3.15
2023-03-22T12:34:39.236Z,3.25
2023-03-22T12:37:09.237Z,3.50
2023-03-22T12:39:41.236Z,3.65
2023-03-22T12:42:21.944Z,3.50
2023-03-22T12:45:04.123Z,3.63
2023-03-22T12:47:42.434Z,3.50
2023-03-22T12:50:22.281Z,3.28
2023-03-22T12:52:54.807Z,3.53
2023-03-22T12:55:34.988Z,3.83
2023-03-22T12:58:02.700Z,3.70
2023-03-22T13:00:35.341Z,3.35
2023-03-22T13:03:10.397Z,3.50
2023-03-22T13:05:38.294Z,3.75
2023-03-22T13:08:05.852Z,3.83
2023-03-22T13:10:34.426Z,4.40
2023-03-22T13:13:24.261Z,4.07
2023-03-22T13:16:09.821Z,4.07
2023-03-22T13:18:38.811Z,3.70
2023-03-22T13:21:21.297Z,4.03
2023-03-22T13:24:01.380Z,3.85
2023-03-22T13:26:35.772Z,3.53
2023-03-22T13:29:24.406Z,3.83
2023-03-22T13:31:51.830Z,3.50
2023-03-22T13:34:38.272Z,3.45
2023-03-22T13:37:35.751Z,3.30
2023-03-22T13:40:22.123Z,4.15
2023-03-22T13:42:49.972Z,3.90
2023-03-22T13:46:01.730Z,4.07
2023-03-22T13:48:52.285Z,4.05
2023-03-22T13:51:23.520Z,3.65
2023-03-22T13:54:24.023Z,4.35
2023-03-22T13:56:56.449Z,3.80
2023-03-22T13:59:37.743Z,3.53
2023-03-22T14:02:29.338Z,4.05
2023-03-22T14:05:23.564Z,4.13
2023-03-22T14:07:56.280Z,4.60
2023-03-22T14:10:46.716Z,4.82
2023-03-22T14:13:26.617Z,4.60
2023-03-22T14:16:05.889Z,4.70
2023-03-22T14:18:38.108Z,4.70
2023-03-22T14:21:25.958Z,4.40
